sensor_id;sensor_type;location;lat;lon;timestamp;pressure;altitude;pressure_sealevel;temperature;humidity
37132;BME280;23035;50.032;21.978;2022-08-04T00:03:16;66974.75;;;17.13;100.00
37132;BME280;23035;50.032;21.978;2022-08-04T00:08:29;66995.69;;;17.30;100.00
37132;BME280;23035;50.032;21.978;2022-08-04T00:13:38;66913.25;;;16.52;100.00
37132;BME280;23035;50.032;21.978;2022-08-04T00:19:10;66863.06;;;16.02;100.00
37132;BME280;23035;50.032;21.978;2022-08-04T00:24:15;66828.22;;;15.74;100.00
37132;BME280;23035;50.032;21.978;2022-08-04T00:29:20;66904.09;;;16.44;100.00
37132;BME280;23035;50.032;21.978;2022-08-04T00:34:25;66953.22;;;16.92;100.00
37132;BME280;23035;50.032;21.978;2022-08-04T00:39:30;66943.88;;;16.79;100.00
37132;BME280;23035;50.032;21.978;2022-08-04T00:44:43;66899.75;;;16.40;100.00
37132;BME280;23035;50.032;21.978;2022-08-04T00:50:01;66892.78;;;16.33;100.00
37132;BME280;23035;50.032;21.978;2022-08-04T01:00:46;66968.28;;;17.07;100.00
37132;BME280;23035;50.032;21.978;2022-08-04T01:06:11;66868.44;;;16.08;100.00
37132;BME280;23035;50.032;21.978;2022-08-04T01:11:34;66911.16;;;16.53;100.00
37132;BME280;23035;50.032;21.978;2022-08-04T01:17:07;66989.78;;;17.25;100.00
37132;BME280;23035;50.032;21.978;2022-08-04T01:22:35;67014.50;;;17.45;100.00
37132;BME280;23035;50.032;21.978;2022-08-04T01:28:03;66935.41;;;16.76;100.00
37132;BME280;23035;50.032;21.978;2022-08-04T01:33:13;66948.41;;;16.90;100.00
37132;BME280;23035;50.032;21.978;2022-08-04T01:38:24;66883.53;;;16.22;100.00
37132;BME280;23035;50.032;21.978;2022-08-04T01:43:29;66949.22;;;16.81;100.00
37132;BME280;23035;50.032;21.978;2022-08-04T01:48:37;66950.97;;;16.88;100.00
37132;BME280;23035;50.032;21.978;2022-08-04T01:53:42;66951.97;;;16.86;100.00
37132;BME280;23035;50.032;21.978;2022-08-04T01:58:47;67001.09;;;17.35;100.00
37132;BME280;23035;50.032;21.978;2022-08-04T02:03:52;67006.94;;;17.38;100.00
37132;BME280;23035;50.032;21.978;2022-08-04T02:09:21;66950.97;;;16.88;100.00
37132;BME280;23035;50.032;21.978;2022-08-04T02:14:28;66976.31;;;17.12;100.00
37132;BME280;23035;50.032;21.978;2022-08-04T02:20:07;66860.53;;;16.05;100.00
37132;BME280;23035;50.032;21.978;2022-08-04T02:25:15;66802.75;;;15.45;100.00
37132;BME280;23035;50.032;21.978;2022-08-04T02:30:30;66829.75;;;15.73;100.00
37132;BME280;23035;50.032;21.978;2022-08-04T02:35:38;66770.50;;;15.17;100.00
37132;BME280;23035;50.032;21.978;2022-08-04T02:40:44;66699.72;;;14.58;100.00
37132;BME280;23035;50.032;21.978;2022-08-04T02:45:50;66761.75;;;15.04;100.00
37132;BME280;23035;50.032;21.978;2022-08-04T02:51:00;66838.34;;;15.82;100.00
37132;BME280;23035;50.032;21.978;2022-08-04T02:56:06;66913.16;;;16.50;100.00
37132;BME280;23035;50.032;21.978;2022-08-04T03:01:11;66786.13;;;15.32;100.00
37132;BME280;23035;50.032;21.978;2022-08-04T03:06:44;66867.38;;;16.06;100.00
37132;BME280;23035;50.032;21.978;2022-08-04T03:29:20;66846.50;;;15.92;100.00
37132;BME280;23035;50.032;21.978;2022-08-04T03:34:56;66907.91;;;16.50;100.00
37132;BME280;23035;50.032;21.978;2022-08-04T03:46:08;66924.09;;;16.65;100.00
37132;BME280;23035;50.032;21.978;2022-08-04T03:51:35;66898.63;;;16.36;100.00
37132;BME280;23035;50.032;21.978;2022-08-04T04:02:59;67022.66;;;17.56;100.00
37132;BME280;23035;50.032;21.978;2022-08-04T04:08:26;67025.81;;;17.56;100.00
37132;BME280;23035;50.032;21.978;2022-08-04T04:13:46;67049.03;;;17.78;100.00
37132;BME280;23035;50.032;21.978;2022-08-04T04:19:25;67042.09;;;17.74;100.00
37132;BME280;23035;50.032;21.978;2022-08-04T04:25:02;67100.41;;;18.31;100.00
37132;BME280;23035;50.032;21.978;2022-08-04T04:30:08;67135.34;;;18.59;100.00
37132;BME280;23035;50.032;21.978;2022-08-04T04:35:25;67147.84;;;18.74;100.00
37132;BME280;23035;50.032;21.978;2022-08-04T04:40:40;67135.56;;;18.67;100.00
37132;BME280;23035;50.032;21.978;2022-08-04T04:45:56;67207.22;;;19.30;100.00
37132;BME280;23035;50.032;21.978;2022-08-04T04:51:12;67161.31;;;18.86;100.00
37132;BME280;23035;50.032;21.978;2022-08-04T04:56:24;67175.38;;;19.00;100.00
37132;BME280;23035;50.032;21.978;2022-08-04T05:01:49;67207.75;;;19.30;100.00
37132;BME280;23035;50.032;21.978;2022-08-04T05:07:17;67317.94;;;20.34;100.00
37132;BME280;23035;50.032;21.978;2022-08-04T05:12:50;67330.41;;;20.46;100.00
37132;BME280;23035;50.032;21.978;2022-08-04T05:18:27;67414.09;;;21.22;100.00
37132;BME280;23035;50.032;21.978;2022-08-04T05:23:36;67476.34;;;21.83;100.00
37132;BME280;23035;50.032;21.978;2022-08-04T05:28:47;67638.69;;;23.36;100.00
37132;BME280;23035;50.032;21.978;2022-08-04T05:33:56;67650.59;;;23.47;100.00
37132;BME280;23035;50.032;21.978;2022-08-04T05:39:03;67589.94;;;22.87;100.00
37132;BME280;23035;50.032;21.978;2022-08-04T05:44:08;67630.56;;;23.28;100.00
37132;BME280;23035;50.032;21.978;2022-08-04T05:49:12;67583.59;;;22.89;100.00
37132;BME280;23035;50.032;21.978;2022-08-04T05:54:25;67566.88;;;22.76;98.04
37132;BME280;23035;50.032;21.978;2022-08-04T05:59:30;67542.34;;;22.45;89.67
37132;BME280;23035;50.032;21.978;2022-08-04T06:04:38;67536.94;;;22.40;88.86
37132;BME280;23035;50.032;21.978;2022-08-04T06:09:44;67655.53;;;23.54;84.60
37132;BME280;23035;50.032;21.978;2022-08-04T06:14:49;67578.59;;;22.79;85.00
37132;BME280;23035;50.032;21.978;2022-08-04T06:20:01;67676.63;;;23.71;82.79
37132;BME280;23035;50.032;21.978;2022-08-04T06:25:30;67699.94;;;23.96;78.46
37132;BME280;23035;50.032;21.978;2022-08-04T06:30:35;67740.00;;;24.31;77.30
37132;BME280;23035;50.032;21.978;2022-08-04T06:35:40;67742.72;;;24.34;77.12
37132;BME280;23035;50.032;21.978;2022-08-04T06:40:49;67781.75;;;24.73;73.18
37132;BME280;23035;50.032;21.978;2022-08-04T06:45:55;67857.06;;;25.41;70.05
37132;BME280;23035;50.032;21.978;2022-08-04T06:51:02;67842.97;;;25.28;67.71
37132;BME280;23035;50.032;21.978;2022-08-04T06:56:33;67857.69;;;25.46;69.13
37132;BME280;23035;50.032;21.978;2022-08-04T07:01:41;67981.84;;;26.61;63.12
37132;BME280;23035;50.032;21.978;2022-08-04T07:06:48;67990.50;;;26.66;63.76
37132;BME280;23035;50.032;21.978;2022-08-04T07:11:54;68140.84;;;28.07;59.83
37132;BME280;23035;50.032;21.978;2022-08-04T07:16:58;67978.06;;;26.57;65.38
37132;BME280;23035;50.032;21.978;2022-08-04T07:22:03;68014.44;;;26.94;62.51
37132;BME280;23035;50.032;21.978;2022-08-04T07:27:33;68066.50;;;27.40;60.99
37132;BME280;23035;50.032;21.978;2022-08-04T07:32:51;68016.53;;;26.91;65.44
37132;BME280;23035;50.032;21.978;2022-08-04T07:43:39;67914.00;;;25.94;67.93
37132;BME280;23035;50.032;21.978;2022-08-04T07:48:43;67948.72;;;26.27;67.69
37132;BME280;23035;50.032;21.978;2022-08-04T07:53:48;67903.75;;;25.87;70.91
37132;BME280;23035;50.032;21.978;2022-08-04T07:58:59;67931.34;;;26.11;66.35
37132;BME280;23035;50.032;21.978;2022-08-04T08:04:04;67909.81;;;25.98;67.84
37132;BME280;23035;50.032;21.978;2022-08-04T08:09:11;67948.22;;;26.29;65.90
37132;BME280;23035;50.032;21.978;2022-08-04T08:14:18;67992.75;;;26.73;61.70
37132;BME280;23035;50.032;21.978;2022-08-04T08:19:23;67974.75;;;26.51;64.54
37132;BME280;23035;50.032;21.978;2022-08-04T08:24:27;68045.31;;;27.18;57.92
37132;BME280;23035;50.032;21.978;2022-08-04T08:29:35;67959.13;;;26.42;62.01
37132;BME280;23035;50.032;21.978;2022-08-04T08:35:05;68023.63;;;27.00;56.76
37132;BME280;23035;50.032;21.978;2022-08-04T08:40:30;67982.91;;;26.59;60.13
37132;BME280;23035;50.032;21.978;2022-08-04T08:45:59;67966.69;;;26.46;60.50
37132;BME280;23035;50.032;21.978;2022-08-04T08:51:26;67971.50;;;26.48;60.74
37132;BME280;23035;50.032;21.978;2022-08-04T08:56:50;67987.78;;;26.64;57.13
37132;BME280;23035;50.032;21.978;2022-08-04T09:08:08;68029.66;;;27.08;55.83
37132;BME280;23035;50.032;21.978;2022-08-04T09:13:18;68085.50;;;27.58;52.16
37132;BME280;23035;50.032;21.978;2022-08-04T09:18:32;68065.44;;;27.39;52.83
37132;BME280;23035;50.032;21.978;2022-08-04T09:23:47;68112.13;;;27.83;49.04
37132;BME280;23035;50.032;21.978;2022-08-04T09:29:02;68115.94;;;27.86;48.81
37132;BME280;23035;50.032;21.978;2022-08-04T09:34:19;68036.63;;;27.09;46.94
37132;BME280;23035;50.032;21.978;2022-08-04T09:39:32;68072.00;;;27.48;47.50
37132;BME280;23035;50.032;21.978;2022-08-04T09:45:18;68071.44;;;27.47;45.85
37132;BME280;23035;50.032;21.978;2022-08-04T09:50:40;68010.66;;;26.90;48.00
37132;BME280;23035;50.032;21.978;2022-08-04T09:55:58;68115.38;;;27.86;46.63
37132;BME280;23035;50.032;21.978;2022-08-04T10:01:08;68099.69;;;27.74;45.61
37132;BME280;23035;50.032;21.978;2022-08-04T10:06:33;68056.19;;;27.30;45.73
37132;BME280;23035;50.032;21.978;2022-08-04T10:11:52;68073.03;;;27.46;47.00
37132;BME280;23035;50.032;21.978;2022-08-04T10:17:11;68065.44;;;27.39;48.02
37132;BME280;23035;50.032;21.978;2022-08-04T10:22:25;68128.38;;;27.95;46.61
37132;BME280;23035;50.032;21.978;2022-08-04T10:27:48;68153.88;;;28.19;42.98
37132;BME280;23035;50.032;21.978;2022-08-04T10:33:23;68186.00;;;28.52;44.25
37132;BME280;23035;50.032;21.978;2022-08-04T10:38:32;68117.47;;;27.83;45.20
37132;BME280;23035;50.032;21.978;2022-08-04T10:43:48;68148.41;;;28.12;45.13
37132;BME280;23035;50.032;21.978;2022-08-04T10:48:59;68231.13;;;28.97;42.22
37132;BME280;23035;50.032;21.978;2022-08-04T10:54:11;68227.84;;;28.91;43.88
37132;BME280;23035;50.032;21.978;2022-08-04T10:59:21;68176.72;;;28.41;41.88
37132;BME280;23035;50.032;21.978;2022-08-04T11:04:32;68174.50;;;28.36;41.46
37132;BME280;23035;50.032;21.978;2022-08-04T11:09:41;68272.91;;;29.33;41.35
37132;BME280;23035;50.032;21.978;2022-08-04T11:15:05;68230.59;;;28.96;41.80
37132;BME280;23035;50.032;21.978;2022-08-04T11:20:15;68161.00;;;28.28;40.93
37132;BME280;23035;50.032;21.978;2022-08-04T11:25:48;68227.88;;;28.94;40.45
37132;BME280;23035;50.032;21.978;2022-08-04T11:30:56;68327.28;;;29.84;40.50
37132;BME280;23035;50.032;21.978;2022-08-04T11:36:07;68724.59;;;33.56;33.42
37132;BME280;23035;50.032;21.978;2022-08-04T11:41:18;68915.38;;;35.36;31.41
37132;BME280;23035;50.032;21.978;2022-08-04T11:46:31;68728.91;;;33.57;30.41
37132;BME280;23035;50.032;21.978;2022-08-04T11:51:38;68739.28;;;33.70;32.14
37132;BME280;23035;50.032;21.978;2022-08-04T11:56:54;68998.84;;;36.17;29.78
37132;BME280;23035;50.032;21.978;2022-08-04T12:02:18;68893.53;;;35.14;30.17
37132;BME280;23035;50.032;21.978;2022-08-04T12:07:50;69097.59;;;37.04;27.52
37132;BME280;23035;50.032;21.978;2022-08-04T12:20:02;69001.53;;;36.14;25.69
37132;BME280;23035;50.032;21.978;2022-08-04T12:25:31;68965.00;;;35.80;26.44
37132;BME280;23035;50.032;21.978;2022-08-04T12:30:42;68892.47;;;35.13;27.80
37132;BME280;23035;50.032;21.978;2022-08-04T12:36:11;68905.53;;;35.25;26.96
37132;BME280;23035;50.032;21.978;2022-08-04T12:41:24;68859.16;;;34.79;27.60
37132;BME280;23035;50.032;21.978;2022-08-04T12:46:32;68941.00;;;35.58;26.83
37132;BME280;23035;50.032;21.978;2022-08-04T12:51:39;68868.41;;;34.85;28.48
37132;BME280;23035;50.032;21.978;2022-08-04T12:57:05;68884.81;;;35.05;28.74
37132;BME280;23035;50.032;21.978;2022-08-04T13:02:22;68891.88;;;35.10;27.09
37132;BME280;23035;50.032;21.978;2022-08-04T13:07:35;68840.13;;;34.64;28.96
37132;BME280;23035;50.032;21.978;2022-08-04T13:12:52;68797.59;;;34.24;29.63
37132;BME280;23035;50.032;21.978;2022-08-04T13:18:02;68674.97;;;33.07;30.89
37132;BME280;23035;50.032;21.978;2022-08-04T13:23:17;68843.41;;;34.69;28.90
37132;BME280;23035;50.032;21.978;2022-08-04T13:28:25;68835.19;;;34.57;28.44
37132;BME280;23035;50.032;21.978;2022-08-04T13:33:34;68886.44;;;35.04;29.46
37132;BME280;23035;50.032;21.978;2022-08-04T13:38:43;69064.28;;;36.73;28.30
37132;BME280;23035;50.032;21.978;2022-08-04T13:43:51;69099.81;;;37.11;28.54
37132;BME280;23035;50.032;21.978;2022-08-04T13:49:18;69068.06;;;36.71;25.94
37132;BME280;23035;50.032;21.978;2022-08-04T13:54:44;68909.84;;;35.24;27.40
37132;BME280;23035;50.032;21.978;2022-08-04T13:59:51;68904.44;;;35.24;26.61
37132;BME280;23035;50.032;21.978;2022-08-04T14:05:02;68884.31;;;35.07;27.36
37132;BME280;23035;50.032;21.978;2022-08-04T14:10:21;68947.53;;;35.64;27.07
37132;BME280;23035;50.032;21.978;2022-08-04T14:15:34;68786.72;;;34.14;28.58
37132;BME280;23035;50.032;21.978;2022-08-04T14:21:10;68987.38;;;36.04;26.39
37132;BME280;23035;50.032;21.978;2022-08-04T14:26:31;68963.34;;;35.79;26.75
37132;BME280;23035;50.032;21.978;2022-08-04T14:31:38;68852.59;;;34.70;29.21
37132;BME280;23035;50.032;21.978;2022-08-04T14:37:08;68897.91;;;35.18;26.71
37132;BME280;23035;50.032;21.978;2022-08-04T14:42:39;68932.81;;;35.50;25.96
37132;BME280;23035;50.032;21.978;2022-08-04T14:47:45;68948.59;;;35.62;27.29
37132;BME280;23035;50.032;21.978;2022-08-04T14:53:01;68951.31;;;35.65;25.76
37132;BME280;23035;50.032;21.978;2022-08-04T14:58:06;68866.28;;;34.88;26.72
37132;BME280;23035;50.032;21.978;2022-08-04T15:03:50;68914.81;;;35.36;26.08
37132;BME280;23035;50.032;21.978;2022-08-04T15:09:02;68926.81;;;35.42;26.82
37132;BME280;23035;50.032;21.978;2022-08-04T15:14:10;69020.56;;;36.27;25.72
37132;BME280;23035;50.032;21.978;2022-08-04T15:19:34;68891.31;;;35.06;26.81
37132;BME280;23035;50.032;21.978;2022-08-04T15:24:40;68978.59;;;35.88;27.26
37132;BME280;23035;50.032;21.978;2022-08-04T15:29:45;68875.00;;;34.94;27.27
37132;BME280;23035;50.032;21.978;2022-08-04T15:35:04;68941.53;;;35.58;27.04
37132;BME280;23035;50.032;21.978;2022-08-04T15:40:12;68866.78;;;34.84;27.88
37132;BME280;23035;50.032;21.978;2022-08-04T15:45:18;68934.94;;;35.47;27.88
37132;BME280;23035;50.032;21.978;2022-08-04T15:50:22;68927.38;;;35.45;26.65
37132;BME280;23035;50.032;21.978;2022-08-04T15:55:33;68906.09;;;35.25;26.36
37132;BME280;23035;50.032;21.978;2022-08-04T16:01:12;68966.03;;;35.79;26.39
37132;BME280;23035;50.032;21.978;2022-08-04T16:06:40;68967.66;;;35.78;26.18
37132;BME280;23035;50.032;21.978;2022-08-04T16:11:47;68839.56;;;34.63;28.19
37132;BME280;23035;50.032;21.978;2022-08-04T16:16:51;68529.56;;;31.68;32.32
37132;BME280;23035;50.032;21.978;2022-08-04T16:21:56;68438.69;;;30.83;33.82
37132;BME280;23035;50.032;21.978;2022-08-04T16:27:04;68334.81;;;29.86;35.70
37132;BME280;23035;50.032;21.978;2022-08-04T16:32:15;68298.94;;;29.53;37.14
37132;BME280;23035;50.032;21.978;2022-08-04T16:37:20;68214.16;;;28.73;39.22
37132;BME280;23035;50.032;21.978;2022-08-04T16:42:29;68206.03;;;28.68;38.94
37132;BME280;23035;50.032;21.978;2022-08-04T16:48:00;68171.28;;;28.36;39.98
37132;BME280;23035;50.032;21.978;2022-08-04T16:53:09;68200.00;;;28.60;39.97
37132;BME280;23035;50.032;21.978;2022-08-04T16:58:35;68147.88;;;28.11;40.34
37132;BME280;23035;50.032;21.978;2022-08-04T17:03:54;68126.75;;;27.94;40.89
37132;BME280;23035;50.032;21.978;2022-08-04T17:09:03;68139.72;;;28.04;40.56
37132;BME280;23035;50.032;21.978;2022-08-04T17:14:09;68142.03;;;28.13;40.53
37132;BME280;23035;50.032;21.978;2022-08-04T17:19:13;68103.94;;;27.72;42.01
37132;BME280;23035;50.032;21.978;2022-08-04T17:24:28;68131.63;;;27.98;41.35
37132;BME280;23035;50.032;21.978;2022-08-04T17:29:34;68111.03;;;27.82;42.33
37132;BME280;23035;50.032;21.978;2022-08-04T17:34:47;68107.19;;;27.76;42.53
37132;BME280;23035;50.032;21.978;2022-08-04T17:39:52;68099.50;;;27.63;43.18
37132;BME280;23035;50.032;21.978;2022-08-04T17:45:07;68088.72;;;27.58;43.94
37132;BME280;23035;50.032;21.978;2022-08-04T17:50:31;68071.31;;;27.39;44.70
37132;BME280;23035;50.032;21.978;2022-08-04T17:55:38;68051.78;;;27.21;45.87
37132;BME280;23035;50.032;21.978;2022-08-04T18:00:45;68033.97;;;27.09;47.39
37132;BME280;23035;50.032;21.978;2022-08-04T18:06:10;68011.16;;;26.88;49.19
37132;BME280;23035;50.032;21.978;2022-08-04T18:11:17;67935.09;;;26.12;53.31
37132;BME280;23035;50.032;21.978;2022-08-04T18:16:25;67827.75;;;25.11;60.49
37132;BME280;23035;50.032;21.978;2022-08-04T18:21:28;67713.44;;;24.06;69.25
37132;BME280;23035;50.032;21.978;2022-08-04T18:26:51;67670.03;;;23.60;75.87
37132;BME280;23035;50.032;21.978;2022-08-04T18:32:02;67569.41;;;22.71;81.27
37132;BME280;23035;50.032;21.978;2022-08-04T18:37:06;67547.16;;;22.47;85.00
37132;BME280;23035;50.032;21.978;2022-08-04T18:42:30;67492.63;;;22.01;91.06
37132;BME280;23035;50.032;21.978;2022-08-04T18:47:43;67477.31;;;21.79;91.68
37132;BME280;23035;50.032;21.978;2022-08-04T18:53:00;67459.03;;;21.67;91.46
37132;BME280;23035;50.032;21.978;2022-08-04T18:58:05;67497.44;;;22.03;92.26
37132;BME280;23035;50.032;21.978;2022-08-04T19:03:21;67436.94;;;21.48;93.68
37132;BME280;23035;50.032;21.978;2022-08-04T19:08:25;67441.75;;;21.51;96.46
37132;BME280;23035;50.032;21.978;2022-08-04T19:13:36;67446.06;;;21.55;96.67
37132;BME280;23035;50.032;21.978;2022-08-04T19:18:41;67391.38;;;21.01;100.00
37132;BME280;23035;50.032;21.978;2022-08-04T19:23:45;67404.97;;;21.16;100.00
37132;BME280;23035;50.032;21.978;2022-08-04T19:29:11;67305.03;;;20.24;100.00
37132;BME280;23035;50.032;21.978;2022-08-04T19:34:17;67270.94;;;19.90;100.00
37132;BME280;23035;50.032;21.978;2022-08-04T19:39:36;67276.81;;;19.93;100.00
37132;BME280;23035;50.032;21.978;2022-08-04T19:44:41;67248.28;;;19.68;100.00
37132;BME280;23035;50.032;21.978;2022-08-04T19:49:47;67375.78;;;20.88;100.00
37132;BME280;23035;50.032;21.978;2022-08-04T19:55:07;67298.38;;;20.11;100.00
37132;BME280;23035;50.032;21.978;2022-08-04T20:00:13;67347.06;;;20.59;100.00
37132;BME280;23035;50.032;21.978;2022-08-04T20:05:36;67244.47;;;19.65;100.00
37132;BME280;23035;50.032;21.978;2022-08-04T20:10:57;67271.28;;;19.83;100.00
37132;BME280;23035;50.032;21.978;2022-08-04T20:16:03;67208.84;;;19.31;100.00
37132;BME280;23035;50.032;21.978;2022-08-04T20:21:28;67193.16;;;19.16;100.00
37132;BME280;23035;50.032;21.978;2022-08-04T20:26:54;67173.13;;;18.95;100.00
37132;BME280;23035;50.032;21.978;2022-08-04T20:31:57;67200.72;;;19.24;100.00
37132;BME280;23035;50.032;21.978;2022-08-04T20:37:12;67314.63;;;20.28;100.00
37132;BME280;23035;50.032;21.978;2022-08-04T20:42:16;67365.44;;;20.76;100.00
37132;BME280;23035;50.032;21.978;2022-08-04T20:47:35;67394.09;;;21.03;100.00
37132;BME280;23035;50.032;21.978;2022-08-04T20:52:42;67411.97;;;21.23;100.00
37132;BME280;23035;50.032;21.978;2022-08-04T20:57:45;67335.78;;;20.51;100.00
37132;BME280;23035;50.032;21.978;2022-08-04T21:02:54;67279.06;;;19.97;100.00
37132;BME280;23035;50.032;21.978;2022-08-04T21:07:59;67175.50;;;19.05;100.00
37132;BME280;23035;50.032;21.978;2022-08-04T21:13:03;67206.75;;;19.32;100.00
37132;BME280;23035;50.032;21.978;2022-08-04T21:18:09;67287.63;;;20.03;100.00
37132;BME280;23035;50.032;21.978;2022-08-04T21:23:14;67251.44;;;19.69;100.00
37132;BME280;23035;50.032;21.978;2022-08-04T21:28:18;67257.31;;;19.72;100.00
37132;BME280;23035;50.032;21.978;2022-08-04T21:33:27;67234.69;;;19.53;100.00
37132;BME280;23035;50.032;21.978;2022-08-04T21:38:52;67176.44;;;19.01;100.00
37132;BME280;23035;50.032;21.978;2022-08-04T21:43:56;67267.03;;;19.81;100.00
37132;BME280;23035;50.032;21.978;2022-08-04T21:49:00;67227.72;;;19.49;100.00
37132;BME280;23035;50.032;21.978;2022-08-04T21:54:12;67225.16;;;19.52;100.00
37132;BME280;23035;50.032;21.978;2022-08-04T21:59:19;67221.13;;;19.38;100.00
37132;BME280;23035;50.032;21.978;2022-08-04T22:04:32;67092.19;;;18.19;100.00
37132;BME280;23035;50.032;21.978;2022-08-04T22:09:40;67094.81;;;18.19;100.00
37132;BME280;23035;50.032;21.978;2022-08-04T22:15:04;67111.16;;;18.39;100.00
37132;BME280;23035;50.032;21.978;2022-08-04T22:20:29;67100.22;;;18.24;100.00
37132;BME280;23035;50.032;21.978;2022-08-04T22:25:35;67086.31;;;18.16;100.00
37132;BME280;23035;50.032;21.978;2022-08-04T22:30:39;67166.69;;;18.89;100.00
37132;BME280;23035;50.032;21.978;2022-08-04T22:35:53;67169.91;;;18.92;100.00
37132;BME280;23035;50.032;21.978;2022-08-04T22:41:02;67033.38;;;17.63;100.00
37132;BME280;23035;50.032;21.978;2022-08-04T22:46:08;67167.88;;;18.95;100.00
37132;BME280;23035;50.032;21.978;2022-08-04T22:51:14;67046.34;;;17.75;100.00
37132;BME280;23035;50.032;21.978;2022-08-04T22:56:20;67143.44;;;18.67;100.00
37132;BME280;23035;50.032;21.978;2022-08-04T23:01:40;67075.47;;;18.03;100.00
37132;BME280;23035;50.032;21.978;2022-08-04T23:07:03;67083.56;;;18.11;100.00
37132;BME280;23035;50.032;21.978;2022-08-04T23:12:12;67093.28;;;18.20;100.00
37132;BME280;23035;50.032;21.978;2022-08-04T23:17:31;67131.03;;;18.55;100.00
37132;BME280;23035;50.032;21.978;2022-08-04T23:22:49;67083.03;;;18.10;100.00
37132;BME280;23035;50.032;21.978;2022-08-04T23:27:58;66975.78;;;17.11;100.00
37132;BME280;23035;50.032;21.978;2022-08-04T23:33:05;67099.72;;;18.26;100.00
37132;BME280;23035;50.032;21.978;2022-08-04T23:38:12;67028.06;;;17.61;100.00
37132;BME280;23035;50.032;21.978;2022-08-04T23:43:34;67086.78;;;18.14;100.00
37132;BME280;23035;50.032;21.978;2022-08-04T23:48:56;67022.06;;;17.53;100.00
37132;BME280;23035;50.032;21.978;2022-08-04T23:54:00;67044.19;;;17.73;100.00
37132;BME280;23035;50.032;21.978;2022-08-04T23:59:07;66943.97;;;16.81;100.00
